This is the latest recevied weather packets stored in our database for station/object N9CQS-13. If no packets are shown the sender has not sent any weather packets the latest 10 day(s).
| Time | Temp. | Humidity | Pressure | Rain* | Wind** | Luminosity | Snow |
|---|---|---|---|---|---|---|---|
| 1777585292 | 16.67° C | 43% | 1015.1 hPa | 0 mm | - | - | - |
| 1777584693 | 16.11° C | 44% | 1015.5 hPa | 0 mm | - | - | - |
| 1777584093 | 15.56° C | 44% | 1015.6 hPa | 0 mm | - | - | - |
| 1777583492 | 15.56° C | 43% | 1015.6 hPa | 0 mm | - | - | - |
| 1777582892 | 16.11° C | 42% | 1015.6 hPa | 0 mm | - | - | - |
| 1777582292 | 16.11° C | 41% | 1015.8 hPa | 0 mm | - | - | - |
| 1777581692 | 16.67° C | 39% | 1015.8 hPa | 0 mm | - | - | - |
| 1777581092 | 16.67° C | 41% | 1015.9 hPa | 0 mm | - | - | - |
| 1777580492 | 16.67° C | 41% | 1015.9 hPa | 0 mm | - | - | - |
| 1777579892 | 16.67° C | 41% | 1016.1 hPa | 0 mm | - | - | - |
| 1777579293 | 17.22° C | 40% | 1016.2 hPa | 0 mm | - | - | - |
| 1777578692 | 17.22° C | 40% | 1016.2 hPa | 0 mm | - | - | - |
| 1777578092 | 17.22° C | 39% | 1016.2 hPa | 0 mm | - | - | - |
| 1777577492 | 16.67° C | 40% | 1016.5 hPa | 0 mm | - | - | - |
| 1777576892 | 16.67° C | 40% | 1016.6 hPa | 0 mm | - | - | - |
| 1777576292 | 17.22° C | 38% | 1016.6 hPa | 0 mm | - | - | - |
| 1777575692 | 17.22° C | 38% | 1016.5 hPa | 0 mm | - | - | - |
| 1777575092 | 18.33° C | 37% | 1016.4 hPa | 0 mm | - | - | - |
| 1777574492 | 16.67° C | 39% | 1016.9 hPa | 0 mm | - | - | - |
| 1777573892 | 17.78° C | 39% | 1017 hPa | 0 mm | - | - | - |
| 1777573292 | 17.22° C | 40% | 1017.1 hPa | 0 mm | - | - | - |
| 1777572692 | 17.78° C | 39% | 1017.1 hPa | 0 mm | - | - | - |
| 1777572093 | 16.67° C | 40% | 1017.3 hPa | 0 mm | - | - | - |
| 1777571492 | 17.78° C | 38% | 1017.2 hPa | 0 mm | - | - | - |
| 1777570892 | 17.78° C | 38% | 1017.5 hPa | 0 mm | - | - | - |
* Rain latest hour (hover to see other rain measurements)
** Current wind speed in m/s (hover to see current wind gust speed)